sensor_id;sensor_type;location;lat;lon;timestamp;pressure;altitude;pressure_sealevel;temperature;humidity
36828;BME280;22766;48.042;11.192;2022-09-13T00:01:22;94847.03;;;8.95;100.00
36828;BME280;22766;48.042;11.192;2022-09-13T00:03:49;94854.53;;;8.88;100.00
36828;BME280;22766;48.042;11.192;2022-09-13T00:06:18;94847.81;;;8.78;100.00
36828;BME280;22766;48.042;11.192;2022-09-13T00:08:45;94845.69;;;8.73;100.00
36828;BME280;22766;48.042;11.192;2022-09-13T00:11:23;94839.25;;;8.60;100.00
36828;BME280;22766;48.042;11.192;2022-09-13T00:13:52;94846.41;;;8.66;100.00
36828;BME280;22766;48.042;11.192;2022-09-13T00:16:21;94838.84;;;8.64;100.00
36828;BME280;22766;48.042;11.192;2022-09-13T00:18:51;94836.94;;;8.66;100.00
36828;BME280;22766;48.042;11.192;2022-09-13T00:21:19;94836.63;;;8.69;100.00
36828;BME280;22766;48.042;11.192;2022-09-13T00:23:49;94837.44;;;8.70;100.00
36828;BME280;22766;48.042;11.192;2022-09-13T00:26:19;94833.69;;;8.64;100.00
36828;BME280;22766;48.042;11.192;2022-09-13T00:28:50;94836.03;;;8.58;100.00
36828;BME280;22766;48.042;11.192;2022-09-13T00:31:18;94836.84;;;8.58;100.00
36828;BME280;22766;48.042;11.192;2022-09-13T00:33:46;94837.94;;;8.56;100.00
36828;BME280;22766;48.042;11.192;2022-09-13T00:36:13;94837.56;;;8.51;100.00
36828;BME280;22766;48.042;11.192;2022-09-13T00:38:41;94838.28;;;8.43;100.00
36828;BME280;22766;48.042;11.192;2022-09-13T00:41:16;94833.69;;;8.37;100.00
36828;BME280;22766;48.042;11.192;2022-09-13T00:46:54;94837.41;;;8.25;100.00
36828;BME280;22766;48.042;11.192;2022-09-13T00:49:24;94836.31;;;8.27;100.00
36828;BME280;22766;48.042;11.192;2022-09-13T00:51:58;94831.66;;;8.40;100.00
36828;BME280;22766;48.042;11.192;2022-09-13T00:54:28;94818.94;;;8.39;100.00
36828;BME280;22766;48.042;11.192;2022-09-13T00:57:01;94808.78;;;8.37;100.00
36828;BME280;22766;48.042;11.192;2022-09-13T00:59:35;94807.53;;;8.41;100.00
36828;BME280;22766;48.042;11.192;2022-09-13T01:02:04;94811.47;;;8.36;100.00
36828;BME280;22766;48.042;11.192;2022-09-13T01:04:33;94817.75;;;8.33;100.00
36828;BME280;22766;48.042;11.192;2022-09-13T01:07:06;94809.06;;;8.34;100.00
36828;BME280;22766;48.042;11.192;2022-09-13T01:09:39;94800.97;;;8.29;100.00
36828;BME280;22766;48.042;11.192;2022-09-13T01:12:16;94802.22;;;8.25;100.00
36828;BME280;22766;48.042;11.192;2022-09-13T01:14:48;94797.19;;;8.24;100.00
36828;BME280;22766;48.042;11.192;2022-09-13T01:17:16;94802.53;;;8.13;100.00
36828;BME280;22766;48.042;11.192;2022-09-13T01:19:43;94803.75;;;8.09;100.00
36828;BME280;22766;48.042;11.192;2022-09-13T01:22:38;94802.94;;;8.08;100.00
36828;BME280;22766;48.042;11.192;2022-09-13T01:30:37;94796.31;;;8.06;100.00
36828;BME280;22766;48.042;11.192;2022-09-13T01:45:05;94791.50;;;7.93;100.00
36828;BME280;22766;48.042;11.192;2022-09-13T01:47:56;94800.03;;;7.94;100.00
36828;BME280;22766;48.042;11.192;2022-09-13T01:58:51;94781.03;;;8.04;100.00
36828;BME280;22766;48.042;11.192;2022-09-13T02:01:35;94780.97;;;8.14;100.00
36828;BME280;22766;48.042;11.192;2022-09-13T02:04:08;94778.91;;;8.27;100.00
36828;BME280;22766;48.042;11.192;2022-09-13T02:06:44;94771.66;;;8.40;100.00
36828;BME280;22766;48.042;11.192;2022-09-13T02:09:18;94779.53;;;8.38;100.00
36828;BME280;22766;48.042;11.192;2022-09-13T02:11:51;94778.84;;;8.36;100.00
36828;BME280;22766;48.042;11.192;2022-09-13T02:14:24;94786.72;;;8.35;100.00
36828;BME280;22766;48.042;11.192;2022-09-13T02:17:03;94790.28;;;8.24;100.00
36828;BME280;22766;48.042;11.192;2022-09-13T02:19:40;94796.50;;;8.22;100.00
36828;BME280;22766;48.042;11.192;2022-09-13T02:22:11;94797.19;;;8.24;100.00
36828;BME280;22766;48.042;11.192;2022-09-13T02:24:43;94790.34;;;8.15;100.00
36828;BME280;22766;48.042;11.192;2022-09-13T02:27:15;94786.13;;;8.14;100.00
36828;BME280;22766;48.042;11.192;2022-09-13T02:29:47;94791.53;;;8.20;100.00
36828;BME280;22766;48.042;11.192;2022-09-13T02:32:21;94792.75;;;8.26;100.00
36828;BME280;22766;48.042;11.192;2022-09-13T02:34:54;94795.53;;;8.23;100.00
36828;BME280;22766;48.042;11.192;2022-09-13T02:37:26;94792.97;;;8.23;100.00
36828;BME280;22766;48.042;11.192;2022-09-13T02:40:00;94795.44;;;8.24;100.00
36828;BME280;22766;48.042;11.192;2022-09-13T02:42:33;94789.19;;;8.27;100.00
36828;BME280;22766;48.042;11.192;2022-09-13T02:45:02;94790.53;;;8.31;100.00
36828;BME280;22766;48.042;11.192;2022-09-13T02:55:28;94789.75;;;8.48;100.00
36828;BME280;22766;48.042;11.192;2022-09-13T02:58:08;94782.47;;;8.43;100.00
36828;BME280;22766;48.042;11.192;2022-09-13T03:00:36;94787.25;;;8.38;100.00
36828;BME280;22766;48.042;11.192;2022-09-13T03:03:05;94790.69;;;8.29;100.00
36828;BME280;22766;48.042;11.192;2022-09-13T03:05:34;94801.41;;;8.15;100.00
36828;BME280;22766;48.042;11.192;2022-09-13T03:08:01;94796.72;;;8.11;100.00
36828;BME280;22766;48.042;11.192;2022-09-13T03:10:36;94791.00;;;8.07;100.00
36828;BME280;22766;48.042;11.192;2022-09-13T03:13:33;94794.16;;;8.01;100.00
36828;BME280;22766;48.042;11.192;2022-09-13T03:18:51;94789.00;;;8.11;100.00
36828;BME280;22766;48.042;11.192;2022-09-13T03:29:54;94782.38;;;8.08;100.00
36828;BME280;22766;48.042;11.192;2022-09-13T03:32:32;94786.00;;;8.06;100.00
36828;BME280;22766;48.042;11.192;2022-09-13T03:37:56;94786.13;;;8.14;100.00
36828;BME280;22766;48.042;11.192;2022-09-13T03:40:27;94793.94;;;8.22;100.00
36828;BME280;22766;48.042;11.192;2022-09-13T03:45:51;94796.78;;;8.19;100.00
36828;BME280;22766;48.042;11.192;2022-09-13T03:48:19;94798.03;;;8.15;100.00
36828;BME280;22766;48.042;11.192;2022-09-13T03:50:47;94804.00;;;8.06;100.00
36828;BME280;22766;48.042;11.192;2022-09-13T03:53:22;94802.41;;;8.05;100.00
36828;BME280;22766;48.042;11.192;2022-09-13T03:55:50;94803.75;;;8.09;100.00
36828;BME280;22766;48.042;11.192;2022-09-13T03:58:18;94804.16;;;8.04;100.00
36828;BME280;22766;48.042;11.192;2022-09-13T04:00:46;94803.88;;;8.07;100.00
36828;BME280;22766;48.042;11.192;2022-09-13T04:03:13;94798.59;;;8.09;100.00
36828;BME280;22766;48.042;11.192;2022-09-13T04:05:40;94791.94;;;8.16;100.00
36828;BME280;22766;48.042;11.192;2022-09-13T04:08:07;94796.41;;;8.14;100.00
36828;BME280;22766;48.042;11.192;2022-09-13T04:10:34;94789.72;;;8.21;100.00
36828;BME280;22766;48.042;11.192;2022-09-13T04:13:02;94791.22;;;8.23;100.00
36828;BME280;22766;48.042;11.192;2022-09-13T04:15:29;94793.78;;;8.33;100.00
36828;BME280;22766;48.042;11.192;2022-09-13T04:17:59;94796.66;;;8.30;100.00
36828;BME280;22766;48.042;11.192;2022-09-13T04:20:26;94797.34;;;8.22;100.00
36828;BME280;22766;48.042;11.192;2022-09-13T04:22:54;94785.97;;;8.25;100.00
36828;BME280;22766;48.042;11.192;2022-09-13T04:25:22;94786.47;;;8.28;100.00
36828;BME280;22766;48.042;11.192;2022-09-13T04:27:53;94792.97;;;8.32;100.00
36828;BME280;22766;48.042;11.192;2022-09-13T04:30:21;94796.13;;;8.17;100.00
36828;BME280;22766;48.042;11.192;2022-09-13T04:32:48;94804.94;;;8.14;100.00
36828;BME280;22766;48.042;11.192;2022-09-13T04:35:15;94798.16;;;8.13;100.00
36828;BME280;22766;48.042;11.192;2022-09-13T04:37:43;94794.50;;;8.16;100.00
36828;BME280;22766;48.042;11.192;2022-09-13T04:40:10;94806.66;;;8.23;100.00
36828;BME280;22766;48.042;11.192;2022-09-13T04:42:37;94794.88;;;8.21;100.00
36828;BME280;22766;48.042;11.192;2022-09-13T04:45:04;94795.03;;;8.19;100.00
36828;BME280;22766;48.042;11.192;2022-09-13T04:47:32;94805.97;;;8.21;100.00
36828;BME280;22766;48.042;11.192;2022-09-13T04:49:58;94800.84;;;8.21;100.00
36828;BME280;22766;48.042;11.192;2022-09-13T04:52:25;94802.88;;;8.27;100.00
36828;BME280;22766;48.042;11.192;2022-09-13T04:54:51;94804.63;;;8.27;100.00
36828;BME280;22766;48.042;11.192;2022-09-13T04:57:18;94799.22;;;8.30;100.00
36828;BME280;22766;48.042;11.192;2022-09-13T04:59:45;94804.31;;;8.39;100.00
36828;BME280;22766;48.042;11.192;2022-09-13T05:02:11;94809.31;;;8.41;100.00
36828;BME280;22766;48.042;11.192;2022-09-13T05:04:38;94812.03;;;8.39;100.00
36828;BME280;22766;48.042;11.192;2022-09-13T05:07:05;94815.38;;;8.40;100.00
36828;BME280;22766;48.042;11.192;2022-09-13T05:09:31;94810.69;;;8.35;100.00
36828;BME280;22766;48.042;11.192;2022-09-13T05:11:58;94812.06;;;8.30;100.00
36828;BME280;22766;48.042;11.192;2022-09-13T05:14:25;94818.00;;;8.30;100.00
36828;BME280;22766;48.042;11.192;2022-09-13T05:16:52;94818.00;;;8.30;100.00
36828;BME280;22766;48.042;11.192;2022-09-13T05:19:18;94833.19;;;8.33;100.00
36828;BME280;22766;48.042;11.192;2022-09-13T05:21:45;94819.09;;;8.37;100.00
36828;BME280;22766;48.042;11.192;2022-09-13T05:24:12;94809.97;;;8.43;100.00
36828;BME280;22766;48.042;11.192;2022-09-13T05:26:38;94812.19;;;8.56;100.00
36828;BME280;22766;48.042;11.192;2022-09-13T05:29:05;94805.50;;;8.63;100.00
36828;BME280;22766;48.042;11.192;2022-09-13T05:31:37;94806.25;;;8.73;100.00
36828;BME280;22766;48.042;11.192;2022-09-13T05:34:07;94814.44;;;8.86;100.00
36828;BME280;22766;48.042;11.192;2022-09-13T05:36:35;94809.81;;;8.89;100.00
36828;BME280;22766;48.042;11.192;2022-09-13T05:39:03;94806.81;;;8.94;100.00
36828;BME280;22766;48.042;11.192;2022-09-13T05:41:50;94802.66;;;9.01;100.00
36828;BME280;22766;48.042;11.192;2022-09-13T05:44:17;94808.34;;;9.04;100.00
36828;BME280;22766;48.042;11.192;2022-09-13T05:46:46;94815.97;;;9.14;100.00
36828;BME280;22766;48.042;11.192;2022-09-13T05:49:14;94822.53;;;9.26;100.00
36828;BME280;22766;48.042;11.192;2022-09-13T05:51:40;94822.22;;;9.47;100.00
36828;BME280;22766;48.042;11.192;2022-09-13T05:54:10;94822.63;;;9.60;100.00
36828;BME280;22766;48.042;11.192;2022-09-13T05:56:37;94819.41;;;9.83;100.00
36828;BME280;22766;48.042;11.192;2022-09-13T05:59:03;94811.88;;;10.15;100.00
36828;BME280;22766;48.042;11.192;2022-09-13T06:01:30;94818.91;;;10.39;100.00
36828;BME280;22766;48.042;11.192;2022-09-13T06:03:58;94811.72;;;10.59;100.00
36828;BME280;22766;48.042;11.192;2022-09-13T06:06:25;94814.88;;;10.78;100.00
36828;BME280;22766;48.042;11.192;2022-09-13T06:08:53;94807.78;;;10.96;100.00
36828;BME280;22766;48.042;11.192;2022-09-13T06:11:21;94805.41;;;11.19;100.00
36828;BME280;22766;48.042;11.192;2022-09-13T06:13:49;94808.66;;;11.37;100.00
36828;BME280;22766;48.042;11.192;2022-09-13T06:16:16;94799.59;;;11.57;100.00
36828;BME280;22766;48.042;11.192;2022-09-13T06:18:43;94811.91;;;11.79;100.00
36828;BME280;22766;48.042;11.192;2022-09-13T06:21:13;94817.66;;;12.05;100.00
36828;BME280;22766;48.042;11.192;2022-09-13T06:23:44;94815.19;;;12.20;100.00
36828;BME280;22766;48.042;11.192;2022-09-13T06:26:12;94817.38;;;12.39;100.00
36828;BME280;22766;48.042;11.192;2022-09-13T06:28:40;94809.09;;;12.52;100.00
36828;BME280;22766;48.042;11.192;2022-09-13T06:31:12;94810.00;;;12.67;100.00
36828;BME280;22766;48.042;11.192;2022-09-13T06:33:41;94805.22;;;12.78;100.00
36828;BME280;22766;48.042;11.192;2022-09-13T06:36:14;94809.63;;;12.78;100.00
36828;BME280;22766;48.042;11.192;2022-09-13T06:38:44;94811.31;;;12.93;100.00
36828;BME280;22766;48.042;11.192;2022-09-13T06:41:13;94810.16;;;13.04;100.00
36828;BME280;22766;48.042;11.192;2022-09-13T06:43:40;94812.06;;;13.33;100.00
36828;BME280;22766;48.042;11.192;2022-09-13T06:46:09;94806.81;;;13.41;100.00
36828;BME280;22766;48.042;11.192;2022-09-13T06:48:39;94800.28;;;13.67;100.00
36828;BME280;22766;48.042;11.192;2022-09-13T06:51:10;94798.66;;;13.66;100.00
36828;BME280;22766;48.042;11.192;2022-09-13T06:53:37;94799.31;;;13.83;100.00
36828;BME280;22766;48.042;11.192;2022-09-13T06:56:10;94795.31;;;13.95;100.00
36828;BME280;22766;48.042;11.192;2022-09-13T06:58:38;94799.09;;;14.22;100.00
36828;BME280;22766;48.042;11.192;2022-09-13T07:01:16;94794.97;;;14.42;100.00
36828;BME280;22766;48.042;11.192;2022-09-13T07:03:51;94794.28;;;14.62;100.00
36828;BME280;22766;48.042;11.192;2022-09-13T07:06:20;94799.63;;;14.75;100.00
36828;BME280;22766;48.042;11.192;2022-09-13T07:08:49;94796.94;;;15.05;100.00
36828;BME280;22766;48.042;11.192;2022-09-13T07:11:18;94792.44;;;15.34;100.00
36828;BME280;22766;48.042;11.192;2022-09-13T07:13:49;94793.41;;;15.48;100.00
36828;BME280;22766;48.042;11.192;2022-09-13T07:16:17;94796.75;;;15.63;100.00
36828;BME280;22766;48.042;11.192;2022-09-13T07:18:45;94788.34;;;15.67;100.00
36828;BME280;22766;48.042;11.192;2022-09-13T07:21:15;94784.97;;;15.67;100.00
36828;BME280;22766;48.042;11.192;2022-09-13T07:23:43;94786.66;;;15.81;100.00
36828;BME280;22766;48.042;11.192;2022-09-13T07:26:10;94785.88;;;16.08;100.00
36828;BME280;22766;48.042;11.192;2022-09-13T07:28:38;94780.78;;;16.28;100.00
36828;BME280;22766;48.042;11.192;2022-09-13T07:33:32;94777.22;;;16.35;100.00
36828;BME280;22766;48.042;11.192;2022-09-13T07:35:58;94786.72;;;16.49;100.00
36828;BME280;22766;48.042;11.192;2022-09-13T07:38:26;94779.28;;;16.46;100.00
36828;BME280;22766;48.042;11.192;2022-09-13T07:40:56;94786.72;;;16.49;100.00
36828;BME280;22766;48.042;11.192;2022-09-13T07:43:25;94784.22;;;16.69;100.00
36828;BME280;22766;48.042;11.192;2022-09-13T07:46:00;94787.69;;;16.89;100.00
36828;BME280;22766;48.042;11.192;2022-09-13T07:48:29;94785.81;;;17.30;100.00
36828;BME280;22766;48.042;11.192;2022-09-13T07:51:01;94789.03;;;17.39;100.00
36828;BME280;22766;48.042;11.192;2022-09-13T07:53:29;94789.91;;;17.65;100.00
36828;BME280;22766;48.042;11.192;2022-09-13T07:56:06;94782.47;;;17.89;100.00
36828;BME280;22766;48.042;11.192;2022-09-13T07:58:34;94789.88;;;18.11;100.00
36828;BME280;22766;48.042;11.192;2022-09-13T08:01:05;94781.84;;;18.19;100.00
36828;BME280;22766;48.042;11.192;2022-09-13T08:03:33;94791.09;;;18.15;100.00
36828;BME280;22766;48.042;11.192;2022-09-13T08:06:01;94788.63;;;18.33;100.00
36828;BME280;22766;48.042;11.192;2022-09-13T08:08:28;94789.41;;;18.60;100.00
36828;BME280;22766;48.042;11.192;2022-09-13T08:10:55;94789.22;;;18.55;100.00
36828;BME280;22766;48.042;11.192;2022-09-13T08:13:22;94792.50;;;18.95;100.00
36828;BME280;22766;48.042;11.192;2022-09-13T08:15:49;94787.19;;;19.14;100.00
36828;BME280;22766;48.042;11.192;2022-09-13T08:18:17;94789.41;;;19.11;100.00
36828;BME280;22766;48.042;11.192;2022-09-13T08:20:44;94781.97;;;19.45;100.00
36828;BME280;22766;48.042;11.192;2022-09-13T08:23:11;94786.97;;;19.78;100.00
36828;BME280;22766;48.042;11.192;2022-09-13T08:25:39;94797.22;;;19.86;100.00
36828;BME280;22766;48.042;11.192;2022-09-13T08:28:24;94794.31;;;19.94;100.00
36828;BME280;22766;48.042;11.192;2022-09-13T08:30:53;94791.25;;;19.97;100.00
36828;BME280;22766;48.042;11.192;2022-09-13T08:33:20;94788.59;;;20.04;100.00
36828;BME280;22766;48.042;11.192;2022-09-13T08:35:50;94789.03;;;20.25;100.00
36828;BME280;22766;48.042;11.192;2022-09-13T08:38:18;94790.91;;;20.18;100.00
36828;BME280;22766;48.042;11.192;2022-09-13T08:40:49;94788.63;;;20.46;98.59
36828;BME280;22766;48.042;11.192;2022-09-13T08:45:59;94794.59;;;20.72;100.00
36828;BME280;22766;48.042;11.192;2022-09-13T08:48:39;94786.53;;;20.55;95.84
36828;BME280;22766;48.042;11.192;2022-09-13T08:51:22;94778.50;;;20.68;95.72
36828;BME280;22766;48.042;11.192;2022-09-13T08:53:50;94771.72;;;20.61;93.54
36828;BME280;22766;48.042;11.192;2022-09-13T08:56:34;94775.19;;;20.73;91.02
36828;BME280;22766;48.042;11.192;2022-09-13T08:59:35;94767.28;;;20.43;91.41
36828;BME280;22766;48.042;11.192;2022-09-13T09:05:20;94763.41;;;20.82;91.47
36828;BME280;22766;48.042;11.192;2022-09-13T09:10:23;94771.53;;;21.39;78.03
36828;BME280;22766;48.042;11.192;2022-09-13T09:12:56;94769.47;;;21.30;77.33
36828;BME280;22766;48.042;11.192;2022-09-13T09:15:28;94767.88;;;21.29;75.56
36828;BME280;22766;48.042;11.192;2022-09-13T09:18:05;94780.72;;;21.19;78.50
36828;BME280;22766;48.042;11.192;2022-09-13T09:21:01;94775.28;;;21.32;81.71
36828;BME280;22766;48.042;11.192;2022-09-13T09:26:21;94767.81;;;22.23;75.22
36828;BME280;22766;48.042;11.192;2022-09-13T09:28:49;94767.72;;;22.41;75.17
36828;BME280;22766;48.042;11.192;2022-09-13T09:31:32;94772.75;;;22.43;68.39
36828;BME280;22766;48.042;11.192;2022-09-13T09:36:43;94768.47;;;23.16;71.52
36828;BME280;22766;48.042;11.192;2022-09-13T09:39:12;94767.09;;;23.53;63.83
36828;BME280;22766;48.042;11.192;2022-09-13T09:41:43;94765.53;;;23.85;64.78
36828;BME280;22766;48.042;11.192;2022-09-13T09:44:25;94759.56;;;24.23;64.23
36828;BME280;22766;48.042;11.192;2022-09-13T09:46:59;94756.72;;;24.46;61.30
36828;BME280;22766;48.042;11.192;2022-09-13T09:49:36;94760.78;;;24.54;54.33
36828;BME280;22766;48.042;11.192;2022-09-13T09:52:28;94766.78;;;24.49;57.28
36828;BME280;22766;48.042;11.192;2022-09-13T09:55:03;94758.06;;;24.49;52.61
36828;BME280;22766;48.042;11.192;2022-09-13T09:57:56;94746.13;;;24.25;50.56
36828;BME280;22766;48.042;11.192;2022-09-13T10:00:29;94742.75;;;24.13;55.83
36828;BME280;22766;48.042;11.192;2022-09-13T10:05:31;94738.44;;;24.23;52.70
36828;BME280;22766;48.042;11.192;2022-09-13T10:08:01;94727.22;;;24.33;52.68
36828;BME280;22766;48.042;11.192;2022-09-13T10:10:39;94718.69;;;24.85;57.33
36828;BME280;22766;48.042;11.192;2022-09-13T10:13:34;94715.97;;;24.59;55.70
36828;BME280;22766;48.042;11.192;2022-09-13T10:19:23;94718.25;;;24.12;57.26
36828;BME280;22766;48.042;11.192;2022-09-13T10:24:27;94725.63;;;25.13;52.20
36828;BME280;22766;48.042;11.192;2022-09-13T10:26:56;94715.66;;;26.10;54.24
36828;BME280;22766;48.042;11.192;2022-09-13T10:29:23;94717.44;;;26.36;49.03
36828;BME280;22766;48.042;11.192;2022-09-13T10:31:51;94719.09;;;26.52;53.19
36828;BME280;22766;48.042;11.192;2022-09-13T10:34:33;94721.03;;;27.29;48.39
36828;BME280;22766;48.042;11.192;2022-09-13T10:37:25;94718.44;;;27.39;45.96
36828;BME280;22766;48.042;11.192;2022-09-13T10:40:06;94714.47;;;27.82;46.20
36828;BME280;22766;48.042;11.192;2022-09-13T10:42:35;94710.53;;;28.09;45.37
36828;BME280;22766;48.042;11.192;2022-09-13T10:45:06;94712.72;;;28.91;44.02
36828;BME280;22766;48.042;11.192;2022-09-13T10:47:43;94714.75;;;29.09;42.66
36828;BME280;22766;48.042;11.192;2022-09-13T10:50:18;94703.19;;;28.80;41.70
36828;BME280;22766;48.042;11.192;2022-09-13T10:52:49;94705.94;;;29.24;42.38
36828;BME280;22766;48.042;11.192;2022-09-13T10:57:50;94696.47;;;30.19;39.70
36828;BME280;22766;48.042;11.192;2022-09-13T11:00:22;94689.72;;;30.79;35.80
36828;BME280;22766;48.042;11.192;2022-09-13T11:25:37;94677.41;;;31.25;33.92
36828;BME280;22766;48.042;11.192;2022-09-13T11:33:58;94673.19;;;32.39;33.07
36828;BME280;22766;48.042;11.192;2022-09-13T11:42:15;94669.97;;;32.83;33.36
36828;BME280;22766;48.042;11.192;2022-09-13T11:55:11;94673.34;;;32.48;34.72
36828;BME280;22766;48.042;11.192;2022-09-13T11:57:45;94670.81;;;32.38;34.10
36828;BME280;22766;48.042;11.192;2022-09-13T12:02:45;94669.94;;;30.37;37.57
36828;BME280;22766;48.042;11.192;2022-09-13T12:05:22;94674.03;;;29.63;38.98
36828;BME280;22766;48.042;11.192;2022-09-13T12:15:56;94660.19;;;29.99;38.18
36828;BME280;22766;48.042;11.192;2022-09-13T12:18:29;94657.47;;;30.33;37.68
36828;BME280;22766;48.042;11.192;2022-09-13T12:23:36;94654.91;;;31.12;33.97
36828;BME280;22766;48.042;11.192;2022-09-13T12:26:08;94649.50;;;32.05;34.34
36828;BME280;22766;48.042;11.192;2022-09-13T12:28:47;94665.50;;;33.05;32.53
36828;BME280;22766;48.042;11.192;2022-09-13T12:31:21;94662.75;;;34.04;31.55
36828;BME280;22766;48.042;11.192;2022-09-13T12:33:48;94658.56;;;33.76;29.26
36828;BME280;22766;48.042;11.192;2022-09-13T12:39:39;94650.78;;;34.41;30.83
36828;BME280;22766;48.042;11.192;2022-09-13T12:42:35;94653.91;;;34.65;30.38
36828;BME280;22766;48.042;11.192;2022-09-13T12:45:14;94650.25;;;34.00;30.42
36828;BME280;22766;48.042;11.192;2022-09-13T12:47:56;94644.13;;;34.60;28.60
36828;BME280;22766;48.042;11.192;2022-09-13T13:01:33;94652.06;;;34.74;29.33
36828;BME280;22766;48.042;11.192;2022-09-13T13:04:09;94656.03;;;34.15;27.20
36828;BME280;22766;48.042;11.192;2022-09-13T13:06:41;94651.16;;;34.17;29.00
36828;BME280;22766;48.042;11.192;2022-09-13T13:09:44;94648.63;;;34.91;29.97
36828;BME280;22766;48.042;11.192;2022-09-13T13:12:11;94648.88;;;34.72;28.22
36828;BME280;22766;48.042;11.192;2022-09-13T13:17:34;94643.34;;;35.16;26.05
36828;BME280;22766;48.042;11.192;2022-09-13T13:23:14;94639.84;;;35.16;26.88
36828;BME280;22766;48.042;11.192;2022-09-13T13:29:02;94634.50;;;35.16;27.86
36828;BME280;22766;48.042;11.192;2022-09-13T13:54:57;94620.13;;;35.37;24.35
36828;BME280;22766;48.042;11.192;2022-09-13T14:00:16;94619.72;;;36.24;24.93
36828;BME280;22766;48.042;11.192;2022-09-13T14:19:28;94597.63;;;36.10;24.04
36828;BME280;22766;48.042;11.192;2022-09-13T14:24:50;94590.25;;;36.36;24.81
36828;BME280;22766;48.042;11.192;2022-09-13T14:27:39;94587.28;;;35.57;25.46
36828;BME280;22766;48.042;11.192;2022-09-13T14:30:21;94593.13;;;33.60;27.38
36828;BME280;22766;48.042;11.192;2022-09-13T14:32:52;94583.16;;;31.48;31.31
36828;BME280;22766;48.042;11.192;2022-09-13T14:35:32;94589.97;;;29.90;34.75
36828;BME280;22766;48.042;11.192;2022-09-13T14:38:18;94581.81;;;29.14;35.44
36828;BME280;22766;48.042;11.192;2022-09-13T14:40:52;94577.84;;;28.68;37.14
36828;BME280;22766;48.042;11.192;2022-09-13T14:43:25;94572.13;;;28.31;38.75
36828;BME280;22766;48.042;11.192;2022-09-13T14:46:02;94570.13;;;28.03;40.33
36828;BME280;22766;48.042;11.192;2022-09-13T14:53:50;94571.53;;;27.40;44.46
36828;BME280;22766;48.042;11.192;2022-09-13T14:56:26;94569.91;;;26.94;45.73
36828;BME280;22766;48.042;11.192;2022-09-13T14:58:55;94567.75;;;26.91;46.68
36828;BME280;22766;48.042;11.192;2022-09-13T15:01:32;94561.44;;;27.07;46.99
36828;BME280;22766;48.042;11.192;2022-09-13T15:04:01;94563.28;;;27.31;46.15
36828;BME280;22766;48.042;11.192;2022-09-13T15:06:32;94563.06;;;27.43;45.38
36828;BME280;22766;48.042;11.192;2022-09-13T15:11:41;94560.63;;;27.06;44.56
36828;BME280;22766;48.042;11.192;2022-09-13T15:14:31;94552.38;;;26.77;47.04
36828;BME280;22766;48.042;11.192;2022-09-13T15:17:08;94551.75;;;26.45;50.35
36828;BME280;22766;48.042;11.192;2022-09-13T15:22:33;94545.41;;;25.89;56.98
36828;BME280;22766;48.042;11.192;2022-09-13T15:25:01;94544.13;;;25.97;59.35
36828;BME280;22766;48.042;11.192;2022-09-13T15:27:29;94541.66;;;25.80;58.62
36828;BME280;22766;48.042;11.192;2022-09-13T15:29:57;94546.19;;;25.85;56.82
36828;BME280;22766;48.042;11.192;2022-09-13T15:32:32;94537.03;;;25.56;63.44
36828;BME280;22766;48.042;11.192;2022-09-13T15:35:00;94533.66;;;25.65;64.86
36828;BME280;22766;48.042;11.192;2022-09-13T15:37:30;94534.66;;;25.59;63.91
36828;BME280;22766;48.042;11.192;2022-09-13T15:40:09;94525.81;;;25.39;69.09
36828;BME280;22766;48.042;11.192;2022-09-13T15:42:37;94519.72;;;25.38;66.74
36828;BME280;22766;48.042;11.192;2022-09-13T15:45:04;94519.81;;;25.53;60.69
36828;BME280;22766;48.042;11.192;2022-09-13T15:47:31;94523.09;;;25.65;58.71
36828;BME280;22766;48.042;11.192;2022-09-13T15:49:58;94519.38;;;25.66;62.65
36828;BME280;22766;48.042;11.192;2022-09-13T15:52:24;94516.72;;;25.66;58.16
36828;BME280;22766;48.042;11.192;2022-09-13T15:54:51;94513.59;;;25.74;57.14
36828;BME280;22766;48.042;11.192;2022-09-13T15:57:18;94511.16;;;25.63;60.63
36828;BME280;22766;48.042;11.192;2022-09-13T15:59:46;94513.22;;;25.14;64.62
36828;BME280;22766;48.042;11.192;2022-09-13T16:02:23;94507.47;;;24.90;72.53
36828;BME280;22766;48.042;11.192;2022-09-13T16:04:51;94514.44;;;25.02;68.34
36828;BME280;22766;48.042;11.192;2022-09-13T16:07:18;94514.78;;;25.15;61.93
36828;BME280;22766;48.042;11.192;2022-09-13T16:09:46;94513.03;;;25.26;61.62
36828;BME280;22766;48.042;11.192;2022-09-13T16:12:13;94506.66;;;25.22;62.51
36828;BME280;22766;48.042;11.192;2022-09-13T16:14:40;94504.25;;;24.83;66.54
36828;BME280;22766;48.042;11.192;2022-09-13T16:17:20;94508.44;;;24.79;68.50
36828;BME280;22766;48.042;11.192;2022-09-13T16:19:47;94501.00;;;24.50;73.97
36828;BME280;22766;48.042;11.192;2022-09-13T16:22:14;94503.69;;;24.28;75.49
36828;BME280;22766;48.042;11.192;2022-09-13T16:24:41;94500.75;;;24.25;75.72
36828;BME280;22766;48.042;11.192;2022-09-13T16:27:10;94504.31;;;24.14;77.88
36828;BME280;22766;48.042;11.192;2022-09-13T16:29:37;94509.34;;;24.15;78.03
36828;BME280;22766;48.042;11.192;2022-09-13T16:32:04;94509.56;;;23.92;77.55
36828;BME280;22766;48.042;11.192;2022-09-13T16:34:31;94513.63;;;23.78;78.86
36828;BME280;22766;48.042;11.192;2022-09-13T16:36:57;94507.78;;;23.54;86.14
36828;BME280;22766;48.042;11.192;2022-09-13T16:39:24;94504.19;;;23.27;88.15
36828;BME280;22766;48.042;11.192;2022-09-13T16:41:51;94511.72;;;22.85;83.37
36828;BME280;22766;48.042;11.192;2022-09-13T16:44:18;94510.22;;;22.56;87.43
36828;BME280;22766;48.042;11.192;2022-09-13T16:46:47;94516.13;;;22.35;90.81
36828;BME280;22766;48.042;11.192;2022-09-13T16:49:14;94513.66;;;22.17;93.21